sensor_id;sensor_type;location;lat;lon;timestamp;P1;durP1;ratioP1;P2;durP2;ratioP2
72115;SDS011;59991;52.140;5.428;2022-09-06T00:00:10;3.38;;;3.03;;
72115;SDS011;59991;52.140;5.428;2022-09-06T00:00:43;10.50;;;3.33;;
72115;SDS011;59991;52.140;5.428;2022-09-06T00:01:14;3.30;;;2.95;;
72115;SDS011;59991;52.140;5.428;2022-09-06T00:01:47;5.23;;;3.30;;
72115;SDS011;59991;52.140;5.428;2022-09-06T00:02:19;4.63;;;3.00;;
72115;SDS011;59991;52.140;5.428;2022-09-06T00:02:51;6.53;;;3.50;;
72115;SDS011;59991;52.140;5.428;2022-09-06T00:03:22;4.25;;;3.60;;
72115;SDS011;59991;52.140;5.428;2022-09-06T00:04:45;3.75;;;3.45;;
72115;SDS011;59991;52.140;5.428;2022-09-06T00:05:18;3.75;;;3.17;;
72115;SDS011;59991;52.140;5.428;2022-09-06T00:05:50;3.55;;;3.25;;
72115;SDS011;59991;52.140;5.428;2022-09-06T00:06:21;4.88;;;3.88;;
72115;SDS011;59991;52.140;5.428;2022-09-06T00:06:53;5.85;;;3.55;;
72115;SDS011;59991;52.140;5.428;2022-09-06T00:07:24;3.90;;;3.47;;
72115;SDS011;59991;52.140;5.428;2022-09-06T00:07:59;4.45;;;3.55;;
72115;SDS011;59991;52.140;5.428;2022-09-06T00:08:33;3.22;;;2.92;;
72115;SDS011;59991;52.140;5.428;2022-09-06T00:09:04;4.22;;;3.80;;
72115;SDS011;59991;52.140;5.428;2022-09-06T00:09:36;4.03;;;3.72;;
72115;SDS011;59991;52.140;5.428;2022-09-06T00:10:07;3.80;;;3.35;;
72115;SDS011;59991;52.140;5.428;2022-09-06T00:10:40;3.70;;;3.30;;
72115;SDS011;59991;52.140;5.428;2022-09-06T00:11:13;3.92;;;3.42;;
72115;SDS011;59991;52.140;5.428;2022-09-06T00:11:46;4.18;;;3.78;;
72115;SDS011;59991;52.140;5.428;2022-09-06T00:12:17;3.17;;;2.80;;
72115;SDS011;59991;52.140;5.428;2022-09-06T00:12:48;4.07;;;3.53;;
72115;SDS011;59991;52.140;5.428;2022-09-06T00:13:20;6.93;;;3.97;;
72115;SDS011;59991;52.140;5.428;2022-09-06T00:13:51;4.15;;;3.80;;
72115;SDS011;59991;52.140;5.428;2022-09-06T00:14:23;3.88;;;3.58;;
72115;SDS011;59991;52.140;5.428;2022-09-06T00:14:54;4.13;;;3.60;;
72115;SDS011;59991;52.140;5.428;2022-09-06T00:15:26;4.65;;;4.22;;
72115;SDS011;59991;52.140;5.428;2022-09-06T00:16:04;4.85;;;3.88;;
72115;SDS011;59991;52.140;5.428;2022-09-06T00:16:45;10.05;;;4.03;;
72115;SDS011;59991;52.140;5.428;2022-09-06T00:17:17;4.47;;;4.07;;
72115;SDS011;59991;52.140;5.428;2022-09-06T00:17:48;4.20;;;3.80;;
72115;SDS011;59991;52.140;5.428;2022-09-06T00:18:21;5.27;;;3.97;;
72115;SDS011;59991;52.140;5.428;2022-09-06T00:19:12;3.85;;;3.55;;
72115;SDS011;59991;52.140;5.428;2022-09-06T00:19:43;5.00;;;3.55;;
72115;SDS011;59991;52.140;5.428;2022-09-06T00:20:14;4.45;;;4.03;;
72115;SDS011;59991;52.140;5.428;2022-09-06T00:20:46;4.60;;;3.83;;
72115;SDS011;59991;52.140;5.428;2022-09-06T00:21:19;5.50;;;3.83;;
72115;SDS011;59991;52.140;5.428;2022-09-06T00:21:53;5.13;;;4.15;;
72115;SDS011;59991;52.140;5.428;2022-09-06T00:22:24;5.18;;;3.78;;
72115;SDS011;59991;52.140;5.428;2022-09-06T00:22:59;4.38;;;3.92;;
72115;SDS011;59991;52.140;5.428;2022-09-06T00:23:33;4.07;;;3.70;;
72115;SDS011;59991;52.140;5.428;2022-09-06T00:24:04;4.50;;;4.10;;
72115;SDS011;59991;52.140;5.428;2022-09-06T00:24:36;7.40;;;3.50;;
72115;SDS011;59991;52.140;5.428;2022-09-06T00:25:08;6.40;;;3.53;;
72115;SDS011;59991;52.140;5.428;2022-09-06T00:25:39;7.63;;;5.25;;
72115;SDS011;59991;52.140;5.428;2022-09-06T00:26:12;4.50;;;4.10;;
72115;SDS011;59991;52.140;5.428;2022-09-06T00:26:44;3.78;;;3.38;;
72115;SDS011;59991;52.140;5.428;2022-09-06T00:27:15;3.25;;;2.95;;
72115;SDS011;59991;52.140;5.428;2022-09-06T00:28:05;5.03;;;3.88;;
72115;SDS011;59991;52.140;5.428;2022-09-06T00:28:38;4.45;;;3.80;;
72115;SDS011;59991;52.140;5.428;2022-09-06T00:29:09;4.88;;;3.38;;
72115;SDS011;59991;52.140;5.428;2022-09-06T00:29:41;7.47;;;4.43;;
72115;SDS011;59991;52.140;5.428;2022-09-06T00:30:12;4.72;;;4.10;;
72115;SDS011;59991;52.140;5.428;2022-09-06T00:30:44;5.53;;;4.10;;
72115;SDS011;59991;52.140;5.428;2022-09-06T00:31:17;4.72;;;4.20;;
72115;SDS011;59991;52.140;5.428;2022-09-06T00:31:50;4.60;;;4.20;;
72115;SDS011;59991;52.140;5.428;2022-09-06T00:32:21;5.38;;;4.38;;
72115;SDS011;59991;52.140;5.428;2022-09-06T00:32:53;3.83;;;3.53;;
72115;SDS011;59991;52.140;5.428;2022-09-06T00:33:25;4.30;;;3.90;;
72115;SDS011;59991;52.140;5.428;2022-09-06T00:33:56;4.53;;;4.13;;
72115;SDS011;59991;52.140;5.428;2022-09-06T00:34:28;3.88;;;3.47;;
72115;SDS011;59991;52.140;5.428;2022-09-06T00:34:59;4.23;;;3.03;;
72115;SDS011;59991;52.140;5.428;2022-09-06T00:35:31;5.15;;;4.47;;
72115;SDS011;59991;52.140;5.428;2022-09-06T00:36:02;16.33;;;4.65;;
72115;SDS011;59991;52.140;5.428;2022-09-06T00:36:34;3.92;;;3.63;;
72115;SDS011;59991;52.140;5.428;2022-09-06T00:37:05;4.00;;;3.60;;
72115;SDS011;59991;52.140;5.428;2022-09-06T00:37:37;3.92;;;3.53;;
72115;SDS011;59991;52.140;5.428;2022-09-06T00:38:08;5.50;;;4.07;;
72115;SDS011;59991;52.140;5.428;2022-09-06T00:38:40;4.38;;;3.97;;
72115;SDS011;59991;52.140;5.428;2022-09-06T00:39:12;4.18;;;3.78;;
72115;SDS011;59991;52.140;5.428;2022-09-06T00:39:43;6.15;;;3.67;;
72115;SDS011;59991;52.140;5.428;2022-09-06T00:40:15;3.83;;;3.50;;
72115;SDS011;59991;52.140;5.428;2022-09-06T00:40:46;6.30;;;3.60;;
72115;SDS011;59991;52.140;5.428;2022-09-06T00:41:18;4.80;;;3.65;;
72115;SDS011;59991;52.140;5.428;2022-09-06T00:41:49;5.00;;;4.07;;
72115;SDS011;59991;52.140;5.428;2022-09-06T00:42:21;4.40;;;4.00;;
72115;SDS011;59991;52.140;5.428;2022-09-06T00:42:52;5.38;;;3.78;;
72115;SDS011;59991;52.140;5.428;2022-09-06T00:43:24;4.03;;;3.70;;
72115;SDS011;59991;52.140;5.428;2022-09-06T00:43:55;5.20;;;3.85;;
72115;SDS011;59991;52.140;5.428;2022-09-06T00:44:27;6.85;;;3.67;;
72115;SDS011;59991;52.140;5.428;2022-09-06T00:44:58;3.67;;;3.35;;
72115;SDS011;59991;52.140;5.428;2022-09-06T00:45:30;3.53;;;3.33;;
72115;SDS011;59991;52.140;5.428;2022-09-06T00:46:02;4.07;;;3.63;;
72115;SDS011;59991;52.140;5.428;2022-09-06T00:46:36;4.07;;;3.65;;
72115;SDS011;59991;52.140;5.428;2022-09-06T00:47:12;4.13;;;3.83;;
72115;SDS011;59991;52.140;5.428;2022-09-06T00:47:43;5.40;;;4.03;;
72115;SDS011;59991;52.140;5.428;2022-09-06T00:48:15;5.50;;;3.80;;
72115;SDS011;59991;52.140;5.428;2022-09-06T00:48:48;6.07;;;3.35;;
72115;SDS011;59991;52.140;5.428;2022-09-06T00:49:40;3.97;;;3.60;;
72115;SDS011;59991;52.140;5.428;2022-09-06T00:50:16;6.18;;;3.95;;
72115;SDS011;59991;52.140;5.428;2022-09-06T00:50:50;4.32;;;3.70;;
72115;SDS011;59991;52.140;5.428;2022-09-06T00:51:29;4.00;;;3.70;;
72115;SDS011;59991;52.140;5.428;2022-09-06T00:52:06;4.28;;;3.88;;
72115;SDS011;59991;52.140;5.428;2022-09-06T00:52:57;5.18;;;4.05;;
72115;SDS011;59991;52.140;5.428;2022-09-06T00:53:29;3.92;;;3.53;;
72115;SDS011;59991;52.140;5.428;2022-09-06T00:54:02;7.78;;;4.60;;
72115;SDS011;59991;52.140;5.428;2022-09-06T00:54:35;4.20;;;3.80;;
72115;SDS011;59991;52.140;5.428;2022-09-06T00:55:07;6.35;;;3.75;;
72115;SDS011;59991;52.140;5.428;2022-09-06T00:55:40;4.63;;;4.18;;
72115;SDS011;59991;52.140;5.428;2022-09-06T00:56:30;5.47;;;3.50;;
72115;SDS011;59991;52.140;5.428;2022-09-06T00:57:03;3.65;;;3.15;;
72115;SDS011;59991;52.140;5.428;2022-09-06T00:57:34;4.20;;;3.90;;
72115;SDS011;59991;52.140;5.428;2022-09-06T00:58:24;5.35;;;3.22;;
72115;SDS011;59991;52.140;5.428;2022-09-06T00:58:57;5.95;;;3.92;;
72115;SDS011;59991;52.140;5.428;2022-09-06T00:59:46;5.80;;;4.05;;
72115;SDS011;59991;52.140;5.428;2022-09-06T01:00:18;5.15;;;4.00;;
72115;SDS011;59991;52.140;5.428;2022-09-06T01:00:50;4.20;;;3.80;;
72115;SDS011;59991;52.140;5.428;2022-09-06T01:01:22;4.80;;;3.83;;
72115;SDS011;59991;52.140;5.428;2022-09-06T01:01:54;6.47;;;3.85;;
72115;SDS011;59991;52.140;5.428;2022-09-06T01:02:25;4.63;;;4.18;;
72115;SDS011;59991;52.140;5.428;2022-09-06T01:02:57;4.07;;;3.30;;
72115;SDS011;59991;52.140;5.428;2022-09-06T01:03:28;4.03;;;3.50;;
72115;SDS011;59991;52.140;5.428;2022-09-06T01:04:00;5.95;;;4.18;;
72115;SDS011;59991;52.140;5.428;2022-09-06T01:04:32;6.53;;;4.40;;
72115;SDS011;59991;52.140;5.428;2022-09-06T01:05:04;5.32;;;4.30;;
72115;SDS011;59991;52.140;5.428;2022-09-06T01:05:46;4.53;;;4.13;;
72115;SDS011;59991;52.140;5.428;2022-09-06T01:06:30;4.53;;;3.28;;
72115;SDS011;59991;52.140;5.428;2022-09-06T01:07:14;3.53;;;3.17;;
72115;SDS011;59991;52.140;5.428;2022-09-06T01:09:53;6.38;;;3.47;;
72115;SDS011;59991;52.140;5.428;2022-09-06T01:11:34;3.45;;;3.15;;
72115;SDS011;59991;52.140;5.428;2022-09-06T01:14:07;3.65;;;3.28;;
72115;SDS011;59991;52.140;5.428;2022-09-06T01:15:01;3.97;;;3.60;;
72115;SDS011;59991;52.140;5.428;2022-09-06T01:16:41;4.57;;;4.10;;
72115;SDS011;59991;52.140;5.428;2022-09-06T01:20:35;5.72;;;3.90;;
72115;SDS011;59991;52.140;5.428;2022-09-06T01:24:38;6.35;;;2.95;;
72115;SDS011;59991;52.140;5.428;2022-09-06T01:26:03;4.18;;;3.80;;
72115;SDS011;59991;52.140;5.428;2022-09-06T01:28:24;4.53;;;4.13;;
72115;SDS011;59991;52.140;5.428;2022-09-06T01:29:01;4.83;;;3.90;;
72115;SDS011;59991;52.140;5.428;2022-09-06T01:29:49;5.13;;;3.72;;
72115;SDS011;59991;52.140;5.428;2022-09-06T01:30:42;3.92;;;3.63;;
72115;SDS011;59991;52.140;5.428;2022-09-06T01:33:15;4.25;;;3.67;;
72115;SDS011;59991;52.140;5.428;2022-09-06T01:34:28;3.58;;;2.88;;
72115;SDS011;59991;52.140;5.428;2022-09-06T01:36:00;5.72;;;3.80;;
72115;SDS011;59991;52.140;5.428;2022-09-06T01:37:36;4.67;;;3.93;;
72115;SDS011;59991;52.140;5.428;2022-09-06T01:38:08;5.85;;;3.72;;
72115;SDS011;59991;52.140;5.428;2022-09-06T01:38:40;5.28;;;3.78;;
72115;SDS011;59991;52.140;5.428;2022-09-06T01:39:16;6.20;;;4.03;;
72115;SDS011;59991;52.140;5.428;2022-09-06T01:39:54;4.72;;;4.32;;
72115;SDS011;59991;52.140;5.428;2022-09-06T01:40:25;4.63;;;4.25;;
72115;SDS011;59991;52.140;5.428;2022-09-06T01:40:58;5.75;;;4.35;;
72115;SDS011;59991;52.140;5.428;2022-09-06T01:41:29;6.97;;;4.85;;
72115;SDS011;59991;52.140;5.428;2022-09-06T01:42:04;4.88;;;4.38;;
72115;SDS011;59991;52.140;5.428;2022-09-06T01:42:45;4.57;;;4.18;;
72115;SDS011;59991;52.140;5.428;2022-09-06T01:43:23;5.13;;;4.63;;
72115;SDS011;59991;52.140;5.428;2022-09-06T01:43:57;6.13;;;4.78;;
72115;SDS011;59991;52.140;5.428;2022-09-06T01:44:29;5.10;;;4.38;;
72115;SDS011;59991;52.140;5.428;2022-09-06T01:45:08;5.13;;;4.63;;
72115;SDS011;59991;52.140;5.428;2022-09-06T01:48:10;6.07;;;4.63;;
72115;SDS011;59991;52.140;5.428;2022-09-06T01:51:11;7.03;;;5.45;;
72115;SDS011;59991;52.140;5.428;2022-09-06T01:52:58;5.07;;;4.70;;
72115;SDS011;59991;52.140;5.428;2022-09-06T01:54:59;5.38;;;4.88;;
72115;SDS011;59991;52.140;5.428;2022-09-06T01:55:34;4.90;;;4.38;;
72115;SDS011;59991;52.140;5.428;2022-09-06T01:57:39;7.70;;;5.47;;
72115;SDS011;59991;52.140;5.428;2022-09-06T01:58:23;6.40;;;5.50;;
72115;SDS011;59991;52.140;5.428;2022-09-06T01:59:02;6.78;;;5.93;;
72115;SDS011;59991;52.140;5.428;2022-09-06T02:00:11;5.82;;;5.20;;
72115;SDS011;59991;52.140;5.428;2022-09-06T02:00:50;5.83;;;5.43;;
72115;SDS011;59991;52.140;5.428;2022-09-06T02:01:51;5.80;;;5.20;;
72115;SDS011;59991;52.140;5.428;2022-09-06T02:02:56;8.95;;;6.28;;
72115;SDS011;59991;52.140;5.428;2022-09-06T02:04:44;5.93;;;5.43;;
72115;SDS011;59991;52.140;5.428;2022-09-06T02:05:19;6.85;;;6.25;;
72115;SDS011;59991;52.140;5.428;2022-09-06T02:06:13;7.50;;;5.90;;
72115;SDS011;59991;52.140;5.428;2022-09-06T02:06:53;7.47;;;5.55;;
72115;SDS011;59991;52.140;5.428;2022-09-06T02:07:31;6.47;;;5.55;;
72115;SDS011;59991;52.140;5.428;2022-09-06T02:08:09;6.03;;;5.45;;
72115;SDS011;59991;52.140;5.428;2022-09-06T02:08:45;6.73;;;5.97;;
72115;SDS011;59991;52.140;5.428;2022-09-06T02:09:22;8.32;;;6.75;;
72115;SDS011;59991;52.140;5.428;2022-09-06T02:10:44;9.45;;;6.38;;
72115;SDS011;59991;52.140;5.428;2022-09-06T02:10:58;10.23;;;6.97;;
72115;SDS011;59991;52.140;5.428;2022-09-06T02:12:24;7.45;;;6.75;;
72115;SDS011;59991;52.140;5.428;2022-09-06T02:13:00;8.30;;;6.35;;
72115;SDS011;59991;52.140;5.428;2022-09-06T02:13:37;6.72;;;6.07;;
72115;SDS011;59991;52.140;5.428;2022-09-06T02:14:15;7.07;;;6.47;;
72115;SDS011;59991;52.140;5.428;2022-09-06T02:15:15;7.45;;;5.72;;
72115;SDS011;59991;52.140;5.428;2022-09-06T02:15:53;5.97;;;5.33;;
72115;SDS011;59991;52.140;5.428;2022-09-06T02:16:28;8.30;;;6.03;;
72115;SDS011;59991;52.140;5.428;2022-09-06T02:17:05;6.57;;;5.97;;
72115;SDS011;59991;52.140;5.428;2022-09-06T02:17:43;9.50;;;6.63;;
72115;SDS011;59991;52.140;5.428;2022-09-06T02:18:39;7.45;;;6.60;;
72115;SDS011;59991;52.140;5.428;2022-09-06T02:19:16;11.15;;;7.68;;
72115;SDS011;59991;52.140;5.428;2022-09-06T02:19:57;6.72;;;6.22;;
72115;SDS011;59991;52.140;5.428;2022-09-06T02:20:34;6.93;;;6.30;;
72115;SDS011;59991;52.140;5.428;2022-09-06T02:21:10;7.40;;;6.45;;
72115;SDS011;59991;52.140;5.428;2022-09-06T02:21:45;7.28;;;6.63;;
72115;SDS011;59991;52.140;5.428;2022-09-06T02:22:18;6.40;;;5.90;;
72115;SDS011;59991;52.140;5.428;2022-09-06T02:22:54;7.10;;;6.40;;
72115;SDS011;59991;52.140;5.428;2022-09-06T02:23:30;6.72;;;6.00;;
72115;SDS011;59991;52.140;5.428;2022-09-06T02:24:06;6.50;;;6.00;;
72115;SDS011;59991;52.140;5.428;2022-09-06T02:24:42;7.97;;;6.18;;
72115;SDS011;59991;52.140;5.428;2022-09-06T02:25:18;6.93;;;6.32;;
72115;SDS011;59991;52.140;5.428;2022-09-06T02:25:56;8.20;;;6.00;;
72115;SDS011;59991;52.140;5.428;2022-09-06T02:26:47;6.70;;;6.20;;
72115;SDS011;59991;52.140;5.428;2022-09-06T02:27:19;7.90;;;7.30;;
72115;SDS011;59991;52.140;5.428;2022-09-06T02:27:51;6.95;;;6.25;;
72115;SDS011;59991;52.140;5.428;2022-09-06T02:28:24;6.77;;;6.17;;
72115;SDS011;59991;52.140;5.428;2022-09-06T02:28:56;7.40;;;6.20;;
72115;SDS011;59991;52.140;5.428;2022-09-06T02:29:28;7.45;;;6.75;;
72115;SDS011;59991;52.140;5.428;2022-09-06T02:29:59;7.47;;;6.45;;
72115;SDS011;59991;52.140;5.428;2022-09-06T02:30:39;12.65;;;6.40;;
72115;SDS011;59991;52.140;5.428;2022-09-06T02:31:16;7.57;;;6.95;;
72115;SDS011;59991;52.140;5.428;2022-09-06T02:32:13;8.63;;;6.70;;
72115;SDS011;59991;52.140;5.428;2022-09-06T02:32:54;7.47;;;6.72;;
72115;SDS011;59991;52.140;5.428;2022-09-06T02:33:31;7.68;;;6.82;;
72115;SDS011;59991;52.140;5.428;2022-09-06T02:34:04;7.88;;;7.07;;
72115;SDS011;59991;52.140;5.428;2022-09-06T02:34:37;7.73;;;7.07;;
72115;SDS011;59991;52.140;5.428;2022-09-06T02:35:11;7.68;;;6.88;;
72115;SDS011;59991;52.140;5.428;2022-09-06T02:35:48;8.30;;;7.45;;
72115;SDS011;59991;52.140;5.428;2022-09-06T02:36:22;7.72;;;7.13;;
72115;SDS011;59991;52.140;5.428;2022-09-06T02:37:12;7.70;;;6.95;;
72115;SDS011;59991;52.140;5.428;2022-09-06T02:37:46;7.57;;;6.45;;
72115;SDS011;59991;52.140;5.428;2022-09-06T02:38:18;8.50;;;7.60;;
72115;SDS011;59991;52.140;5.428;2022-09-06T02:38:52;7.00;;;6.30;;
72115;SDS011;59991;52.140;5.428;2022-09-06T02:39:24;7.38;;;6.78;;
72115;SDS011;59991;52.140;5.428;2022-09-06T02:39:56;7.72;;;7.00;;
72115;SDS011;59991;52.140;5.428;2022-09-06T02:40:27;7.63;;;6.93;;
72115;SDS011;59991;52.140;5.428;2022-09-06T02:40:59;8.63;;;7.80;;
72115;SDS011;59991;52.140;5.428;2022-09-06T02:41:31;7.80;;;7.05;;
72115;SDS011;59991;52.140;5.428;2022-09-06T02:42:03;7.90;;;7.30;;
72115;SDS011;59991;52.140;5.428;2022-09-06T02:42:36;8.65;;;7.18;;
72115;SDS011;59991;52.140;5.428;2022-09-06T02:43:09;9.80;;;7.32;;
72115;SDS011;59991;52.140;5.428;2022-09-06T02:43:41;7.35;;;6.70;;
72115;SDS011;59991;52.140;5.428;2022-09-06T02:44:13;7.40;;;6.63;;
72115;SDS011;59991;52.140;5.428;2022-09-06T02:44:45;9.10;;;7.72;;
72115;SDS011;59991;52.140;5.428;2022-09-06T02:45:16;7.95;;;6.45;;
72115;SDS011;59991;52.140;5.428;2022-09-06T02:45:48;8.43;;;7.53;;
72115;SDS011;59991;52.140;5.428;2022-09-06T02:46:19;8.60;;;7.90;;
72115;SDS011;59991;52.140;5.428;2022-09-06T02:46:51;10.00;;;7.60;;
72115;SDS011;59991;52.140;5.428;2022-09-06T02:47:27;8.57;;;7.78;;
72115;SDS011;59991;52.140;5.428;2022-09-06T02:47:58;16.13;;;7.70;;
72115;SDS011;59991;52.140;5.428;2022-09-06T02:49:20;9.35;;;8.05;;
72115;SDS011;59991;52.140;5.428;2022-09-06T02:50:09;8.68;;;7.75;;
72115;SDS011;59991;52.140;5.428;2022-09-06T02:50:40;8.57;;;7.82;;
72115;SDS011;59991;52.140;5.428;2022-09-06T02:51:12;8.23;;;7.43;;
72115;SDS011;59991;52.140;5.428;2022-09-06T02:51:43;7.63;;;6.97;;
72115;SDS011;59991;52.140;5.428;2022-09-06T02:52:14;7.35;;;6.57;;
72115;SDS011;59991;52.140;5.428;2022-09-06T02:52:46;8.75;;;8.05;;
72115;SDS011;59991;52.140;5.428;2022-09-06T02:53:30;7.88;;;7.07;;
72115;SDS011;59991;52.140;5.428;2022-09-06T02:54:02;8.75;;;6.97;;
72115;SDS011;59991;52.140;5.428;2022-09-06T02:54:33;7.55;;;6.32;;
72115;SDS011;59991;52.140;5.428;2022-09-06T02:55:05;7.75;;;7.05;;
72115;SDS011;59991;52.140;5.428;2022-09-06T02:55:37;7.40;;;6.70;;
72115;SDS011;59991;52.140;5.428;2022-09-06T02:56:09;9.35;;;8.30;;
72115;SDS011;59991;52.140;5.428;2022-09-06T02:56:41;8.18;;;7.30;;
72115;SDS011;59991;52.140;5.428;2022-09-06T02:57:12;7.70;;;6.97;;
72115;SDS011;59991;52.140;5.428;2022-09-06T02:57:44;9.02;;;6.82;;
72115;SDS011;59991;52.140;5.428;2022-09-06T02:58:15;8.25;;;7.45;;
72115;SDS011;59991;52.140;5.428;2022-09-06T02:58:47;7.95;;;7.22;;
72115;SDS011;59991;52.140;5.428;2022-09-06T02:59:20;9.02;;;7.93;;
72115;SDS011;59991;52.140;5.428;2022-09-06T02:59:51;8.57;;;7.60;;
72115;SDS011;59991;52.140;5.428;2022-09-06T03:00:23;7.75;;;7.05;;
72115;SDS011;59991;52.140;5.428;2022-09-06T03:00:55;8.40;;;7.65;;
72115;SDS011;59991;52.140;5.428;2022-09-06T03:01:26;8.30;;;7.50;;
72115;SDS011;59991;52.140;5.428;2022-09-06T03:01:58;8.00;;;7.35;;
72115;SDS011;59991;52.140;5.428;2022-09-06T03:02:30;7.87;;;7.17;;
72115;SDS011;59991;52.140;5.428;2022-09-06T03:03:02;7.82;;;7.03;;
72115;SDS011;59991;52.140;5.428;2022-09-06T03:03:34;8.65;;;7.68;;
72115;SDS011;59991;52.140;5.428;2022-09-06T03:04:05;8.57;;;7.88;;
72115;SDS011;59991;52.140;5.428;2022-09-06T03:04:37;8.13;;;7.53;;
72115;SDS011;59991;52.140;5.428;2022-09-06T03:05:08;9.52;;;7.72;;
72115;SDS011;59991;52.140;5.428;2022-09-06T03:05:39;8.05;;;7.32;;
72115;SDS011;59991;52.140;5.428;2022-09-06T03:06:11;9.00;;;8.02;;
72115;SDS011;59991;52.140;5.428;2022-09-06T03:06:42;7.88;;;7.18;;
72115;SDS011;59991;52.140;5.428;2022-09-06T03:07:32;7.53;;;6.88;;
72115;SDS011;59991;52.140;5.428;2022-09-06T03:08:04;8.63;;;7.83;;
72115;SDS011;59991;52.140;5.428;2022-09-06T03:08:36;7.70;;;7.00;;
72115;SDS011;59991;52.140;5.428;2022-09-06T03:09:08;8.95;;;8.27;;
72115;SDS011;59991;52.140;5.428;2022-09-06T03:09:40;7.53;;;6.82;;
72115;SDS011;59991;52.140;5.428;2022-09-06T03:10:11;8.60;;;7.90;;
72115;SDS011;59991;52.140;5.428;2022-09-06T03:10:49;9.15;;;6.97;;
72115;SDS011;59991;52.140;5.428;2022-09-06T03:11:26;7.78;;;7.07;;
72115;SDS011;59991;52.140;5.428;2022-09-06T03:11:58;8.73;;;7.88;;
72115;SDS011;59991;52.140;5.428;2022-09-06T03:12:48;8.18;;;7.03;;
72115;SDS011;59991;52.140;5.428;2022-09-06T03:13:19;8.10;;;7.38;;
72115;SDS011;59991;52.140;5.428;2022-09-06T03:14:08;7.87;;;7.17;;
72115;SDS011;59991;52.140;5.428;2022-09-06T03:15:50;7.65;;;6.90;;
72115;SDS011;59991;52.140;5.428;2022-09-06T03:16:26;7.32;;;6.65;;
72115;SDS011;59991;52.140;5.428;2022-09-06T03:16:57;7.82;;;7.07;;
72115;SDS011;59991;52.140;5.428;2022-09-06T03:17:28;8.07;;;7.47;;
72115;SDS011;59991;52.140;5.428;2022-09-06T03:18:00;9.45;;;7.45;;
72115;SDS011;59991;52.140;5.428;2022-09-06T03:18:32;9.00;;;8.20;;
72115;SDS011;59991;52.140;5.428;2022-09-06T03:19:03;8.02;;;7.25;;
72115;SDS011;59991;52.140;5.428;2022-09-06T03:19:35;7.13;;;6.43;;
72115;SDS011;59991;52.140;5.428;2022-09-06T03:20:07;7.63;;;6.87;;
72115;SDS011;59991;52.140;5.428;2022-09-06T03:20:39;9.07;;;6.72;;
72115;SDS011;59991;52.140;5.428;2022-09-06T03:21:11;8.32;;;6.93;;
72115;SDS011;59991;52.140;5.428;2022-09-06T03:21:42;8.05;;;7.35;;
72115;SDS011;59991;52.140;5.428;2022-09-06T03:22:13;8.07;;;7.38;;
72115;SDS011;59991;52.140;5.428;2022-09-06T03:22:45;8.00;;;7.18;;
72115;SDS011;59991;52.140;5.428;2022-09-06T03:23:17;8.15;;;7.45;;
72115;SDS011;59991;52.140;5.428;2022-09-06T03:23:49;8.13;;;7.43;;
72115;SDS011;59991;52.140;5.428;2022-09-06T03:24:21;8.45;;;7.43;;
72115;SDS011;59991;52.140;5.428;2022-09-06T03:24:52;8.05;;;7.35;;
72115;SDS011;59991;52.140;5.428;2022-09-06T03:25:23;8.87;;;8.03;;
72115;SDS011;59991;52.140;5.428;2022-09-06T03:25:56;7.82;;;7.15;;
72115;SDS011;59991;52.140;5.428;2022-09-06T03:26:27;7.78;;;7.18;;
72115;SDS011;59991;52.140;5.428;2022-09-06T03:27:18;7.50;;;6.80;;
72115;SDS011;59991;52.140;5.428;2022-09-06T03:27:49;7.97;;;7.22;;
72115;SDS011;59991;52.140;5.428;2022-09-06T03:28:21;7.47;;;6.78;;
72115;SDS011;59991;52.140;5.428;2022-09-06T03:28:53;8.13;;;6.95;;
72115;SDS011;59991;52.140;5.428;2022-09-06T03:29:25;8.57;;;7.82;;
72115;SDS011;59991;52.140;5.428;2022-09-06T03:29:56;7.70;;;7.10;;
72115;SDS011;59991;52.140;5.428;2022-09-06T03:30:28;8.13;;;7.43;;
72115;SDS011;59991;52.140;5.428;2022-09-06T03:30:59;8.23;;;6.40;;
72115;SDS011;59991;52.140;5.428;2022-09-06T03:31:31;7.85;;;7.05;;
72115;SDS011;59991;52.140;5.428;2022-09-06T03:32:02;7.95;;;7.00;;
72115;SDS011;59991;52.140;5.428;2022-09-06T03:32:34;8.85;;;7.60;;
72115;SDS011;59991;52.140;5.428;2022-09-06T03:33:05;7.55;;;6.93;;
72115;SDS011;59991;52.140;5.428;2022-09-06T03:33:37;9.23;;;8.18;;
72115;SDS011;59991;52.140;5.428;2022-09-06T03:34:08;7.82;;;7.10;;
72115;SDS011;59991;52.140;5.428;2022-09-06T03:34:41;8.75;;;8.02;;
72115;SDS011;59991;52.140;5.428;2022-09-06T03:35:31;7.65;;;6.93;;
72115;SDS011;59991;52.140;5.428;2022-09-06T03:36:03;10.18;;;6.65;;
72115;SDS011;59991;52.140;5.428;2022-09-06T03:36:35;7.63;;;6.63;;
72115;SDS011;59991;52.140;5.428;2022-09-06T03:37:06;6.90;;;6.30;;
72115;SDS011;59991;52.140;5.428;2022-09-06T03:37:37;7.97;;;7.22;;
72115;SDS011;59991;52.140;5.428;2022-09-06T03:38:09;7.70;;;6.97;;
72115;SDS011;59991;52.140;5.428;2022-09-06T03:38:40;9.93;;;7.07;;
72115;SDS011;59991;52.140;5.428;2022-09-06T03:39:11;7.45;;;6.93;;
72115;SDS011;59991;52.140;5.428;2022-09-06T03:39:43;9.98;;;7.18;;
72115;SDS011;59991;52.140;5.428;2022-09-06T03:40:14;8.52;;;7.63;;
72115;SDS011;59991;52.140;5.428;2022-09-06T03:40:46;8.55;;;7.78;;
72115;SDS011;59991;52.140;5.428;2022-09-06T03:41:19;10.77;;;7.45;;
72115;SDS011;59991;52.140;5.428;2022-09-06T03:41:50;7.83;;;6.43;;
72115;SDS011;59991;52.140;5.428;2022-09-06T03:42:22;7.18;;;6.47;;
72115;SDS011;59991;52.140;5.428;2022-09-06T03:42:56;8.60;;;7.68;;
72115;SDS011;59991;52.140;5.428;2022-09-06T03:43:27;8.40;;;7.50;;
72115;SDS011;59991;52.140;5.428;2022-09-06T03:43:59;7.90;;;7.20;;
72115;SDS011;59991;52.140;5.428;2022-09-06T03:44:30;7.90;;;6.90;;
72115;SDS011;59991;52.140;5.428;2022-09-06T03:45:02;7.43;;;6.50;;
72115;SDS011;59991;52.140;5.428;2022-09-06T03:45:34;8.45;;;7.30;;
72115;SDS011;59991;52.140;5.428;2022-09-06T03:46:05;8.05;;;7.43;;
72115;SDS011;59991;52.140;5.428;2022-09-06T03:46:37;9.90;;;7.63;;
72115;SDS011;59991;52.140;5.428;2022-09-06T03:47:08;7.80;;;7.17;;
72115;SDS011;59991;52.140;5.428;2022-09-06T03:47:40;8.10;;;7.30;;
72115;SDS011;59991;52.140;5.428;2022-09-06T03:48:29;8.48;;;7.43;;
72115;SDS011;59991;52.140;5.428;2022-09-06T03:49:01;8.25;;;7.53;;
72115;SDS011;59991;52.140;5.428;2022-09-06T03:49:32;7.97;;;7.32;;
72115;SDS011;59991;52.140;5.428;2022-09-06T03:50:04;7.82;;;6.97;;
72115;SDS011;59991;52.140;5.428;2022-09-06T03:50:37;7.43;;;6.72;;
72115;SDS011;59991;52.140;5.428;2022-09-06T03:51:08;8.07;;;7.45;;
72115;SDS011;59991;52.140;5.428;2022-09-06T03:51:40;7.07;;;6.40;;
72115;SDS011;59991;52.140;5.428;2022-09-06T03:52:28;6.47;;;5.88;;
72115;SDS011;59991;52.140;5.428;2022-09-06T03:53:00;6.63;;;5.90;;
72115;SDS011;59991;52.140;5.428;2022-09-06T03:53:31;7.32;;;6.63;;
72115;SDS011;59991;52.140;5.428;2022-09-06T03:54:02;7.40;;;6.72;;
72115;SDS011;59991;52.140;5.428;2022-09-06T03:54:34;7.85;;;7.22;;
72115;SDS011;59991;52.140;5.428;2022-09-06T03:55:06;7.97;;;7.28;;
72115;SDS011;59991;52.140;5.428;2022-09-06T03:55:38;8.25;;;7.47;;
72115;SDS011;59991;52.140;5.428;2022-09-06T03:56:09;8.65;;;7.68;;
72115;SDS011;59991;52.140;5.428;2022-09-06T03:56:58;7.82;;;7.22;;
72115;SDS011;59991;52.140;5.428;2022-09-06T03:57:30;8.55;;;7.75;;
72115;SDS011;59991;52.140;5.428;2022-09-06T03:58:01;8.30;;;7.13;;
72115;SDS011;59991;52.140;5.428;2022-09-06T03:58:51;7.27;;;6.63;;
72115;SDS011;59991;52.140;5.428;2022-09-06T03:59:40;9.57;;;6.75;;
72115;SDS011;59991;52.140;5.428;2022-09-06T04:00:12;9.02;;;6.55;;
72115;SDS011;59991;52.140;5.428;2022-09-06T04:01:03;7.32;;;6.65;;
72115;SDS011;59991;52.140;5.428;2022-09-06T04:01:38;8.27;;;6.80;;
72115;SDS011;59991;52.140;5.428;2022-09-06T04:02:10;7.40;;;6.70;;
72115;SDS011;59991;52.140;5.428;2022-09-06T04:02:41;7.35;;;6.68;;
72115;SDS011;59991;52.140;5.428;2022-09-06T04:03:13;7.68;;;7.07;;
72115;SDS011;59991;52.140;5.428;2022-09-06T04:03:45;7.47;;;6.78;;